createdAt,value
2022-10-14T00:02:22.770Z,67.25
2022-10-14T00:04:49.399Z,66.50
2022-10-14T00:07:15.940Z,68.00
2022-10-14T00:09:42.784Z,70.30
2022-10-14T00:12:09.491Z,64.00
2022-10-14T00:14:36.091Z,64.18
2022-10-14T00:17:02.690Z,63.47
2022-10-14T00:19:29.260Z,61.95
2022-10-14T00:21:55.836Z,60.00
2022-10-14T00:24:22.497Z,66.43
2022-10-14T00:26:49.078Z,65.30
2022-10-14T00:29:18.776Z,66.32
2022-10-14T00:31:46.122Z,62.65
2022-10-14T00:34:15.697Z,66.03
2022-10-14T00:36:42.852Z,68.65
2022-10-14T00:39:09.659Z,67.80
2022-10-14T00:41:36.607Z,63.38
2022-10-14T00:44:08.300Z,64.55
2022-10-14T00:46:43.142Z,69.10
2022-10-14T00:49:18.104Z,72.55
2022-10-14T00:51:52.015Z,73.18
2022-10-14T00:54:24.590Z,69.18
2022-10-14T00:56:52.174Z,70.30
2022-10-14T00:59:18.985Z,69.03
2022-10-14T01:01:45.624Z,70.88
2022-10-14T01:04:12.239Z,82.32
2022-10-14T01:07:16.548Z,71.13
2022-10-14T01:09:58.288Z,68.05
2022-10-14T01:12:34.044Z,69.90
2022-10-14T01:15:10.601Z,68.15
2022-10-14T01:17:49.356Z,69.43
2022-10-14T01:21:02.213Z,71.75
2022-10-14T01:24:05.420Z,72.75
2022-10-14T01:27:08.889Z,78.20
2022-10-14T01:30:01.230Z,77.45
2022-10-14T01:32:57.884Z,82.30
2022-10-14T01:35:52.338Z,79.50
2022-10-14T01:38:30.581Z,81.40
2022-10-14T01:41:09.837Z,85.30
2022-10-14T01:43:39.788Z,85.47
2022-10-14T01:46:08.122Z,85.47
2022-10-14T01:48:40.580Z,84.45
2022-10-14T01:51:14.155Z,86.20
2022-10-14T01:53:54.795Z,86.93
2022-10-14T01:56:21.794Z,85.85
2022-10-14T01:58:49.448Z,84.22
2022-10-14T02:01:16.244Z,84.43
2022-10-14T02:03:46.789Z,85.85
2022-10-14T02:06:25.524Z,94.60
2022-10-14T02:09:01.105Z,92.60
2022-10-14T02:11:34.176Z,93.32
2022-10-14T02:14:13.564Z,93.43
2022-10-14T02:17:03.797Z,96.43
2022-10-14T02:19:54.886Z,93.75
2022-10-14T02:22:39.667Z,91.05
2022-10-14T02:25:30.082Z,90.93
2022-10-14T02:27:58.830Z,99.10
2022-10-14T02:30:28.468Z,96.50
2022-10-14T02:32:57.966Z,86.90
2022-10-14T02:35:25.281Z,94.57
2022-10-14T02:37:53.589Z,96.13
2022-10-14T02:40:47.539Z,93.53
2022-10-14T02:43:16.726Z,92.63
2022-10-14T02:45:57.612Z,96.38
2022-10-14T02:48:24.641Z,98.35
2022-10-14T02:51:01.945Z,99.32
2022-10-14T02:53:41.107Z,92.45
2022-10-14T02:56:11.020Z,96.10
2022-10-14T02:58:43.068Z,93.18
2022-10-14T03:01:21.146Z,95.25
2022-10-14T03:03:47.904Z,91.75
2022-10-14T03:06:14.634Z,90.32
2022-10-14T03:08:41.752Z,89.25
2022-10-14T03:11:08.499Z,102.32
2022-10-14T03:13:35.717Z,91.50
2022-10-14T03:16:02.517Z,85.45
2022-10-14T03:18:29.295Z,94.32
2022-10-14T03:20:55.981Z,98.82
2022-10-14T03:23:24.338Z,87.72
2022-10-14T03:25:52.244Z,90.25
2022-10-14T03:28:18.951Z,92.32
2022-10-14T03:30:45.640Z,98.35
2022-10-14T03:33:14.953Z,92.47
2022-10-14T03:35:43.199Z,100.55
2022-10-14T03:38:10.909Z,93.80
2022-10-14T03:40:38.464Z,98.05
2022-10-14T03:43:05.329Z,93.22
2022-10-14T03:45:32.398Z,89.28
2022-10-14T03:48:00.522Z,90.82
2022-10-14T03:50:29.621Z,88.63
2022-10-14T03:52:56.475Z,96.68
2022-10-14T03:55:23.502Z,98.55
2022-10-14T03:57:54.500Z,99.25
2022-10-14T04:00:21.978Z,98.57
2022-10-14T04:02:48.897Z,98.70
2022-10-14T04:05:16.047Z,93.50
2022-10-14T04:07:43.303Z,96.50
2022-10-14T04:10:11.278Z,94.93
2022-10-14T04:12:40.082Z,94.30
2022-10-14T04:15:08.151Z,102.88
2022-10-14T04:17:35.572Z,102.60
2022-10-14T04:20:02.178Z,105.32
2022-10-14T04:22:30.474Z,105.50
2022-10-14T04:24:57.067Z,105.20
2022-10-14T04:27:23.694Z,106.90
2022-10-14T04:29:52.797Z,105.30
2022-10-14T04:32:20.879Z,98.35
2022-10-14T04:34:48.112Z,102.88
2022-10-14T04:37:14.959Z,101.47
2022-10-14T04:39:42.350Z,102.07
2022-10-14T04:42:09.027Z,102.47
2022-10-14T04:44:35.662Z,112.22
2022-10-14T04:47:03.417Z,102.50
2022-10-14T04:49:30.573Z,102.00
2022-10-14T04:51:58.117Z,106.38
2022-10-14T04:54:25.385Z,111.20
2022-10-14T04:56:52.483Z,109.40
2022-10-14T04:59:19.159Z,109.47
2022-10-14T05:01:46.225Z,113.35
2022-10-14T05:04:13.010Z,113.25
2022-10-14T05:06:39.890Z,112.20
2022-10-14T05:09:06.737Z,107.45
2022-10-14T05:11:33.479Z,107.95
2022-10-14T05:14:00.685Z,106.07
2022-10-14T05:16:27.637Z,106.82
2022-10-14T05:18:54.291Z,113.72
2022-10-14T05:21:21.032Z,108.25
2022-10-14T05:23:48.035Z,101.85
2022-10-14T05:26:14.650Z,110.55
2022-10-14T05:28:41.877Z,104.80
2022-10-14T05:31:09.597Z,110.95
2022-10-14T05:33:37.129Z,109.10
2022-10-14T05:36:04.276Z,107.88
2022-10-14T05:38:34.241Z,110.43
2022-10-14T05:41:01.590Z,112.68
2022-10-14T05:43:32.327Z,109.85
2022-10-14T05:45:59.982Z,107.20
2022-10-14T05:48:26.851Z,115.35
2022-10-14T05:50:53.572Z,109.22
2022-10-14T05:53:20.201Z,111.30
2022-10-14T05:55:47.504Z,103.20
2022-10-14T05:58:14.280Z,108.50
2022-10-14T06:00:41.953Z,107.22
2022-10-14T06:03:13.079Z,108.45
2022-10-14T06:05:40.211Z,113.20
2022-10-14T06:08:07.266Z,99.28
2022-10-14T06:10:36.014Z,102.13
2022-10-14T06:13:03.123Z,108.97
2022-10-14T06:15:29.698Z,102.13
2022-10-14T06:17:56.473Z,107.93
2022-10-14T06:20:23.109Z,118.65
2022-10-14T06:22:51.624Z,117.97
2022-10-14T06:25:19.556Z,123.65
2022-10-14T06:27:48.470Z,144.45
2022-10-14T06:30:16.052Z,140.02
2022-10-14T06:32:42.931Z,142.73
2022-10-14T06:35:10.897Z,148.57
2022-10-14T06:37:38.140Z,143.70
2022-10-14T06:40:06.503Z,138.27
2022-10-14T06:42:34.974Z,143.93
2022-10-14T06:45:01.932Z,147.52
2022-10-14T06:47:29.847Z,136.35
2022-10-14T06:49:56.734Z,130.20
2022-10-14T06:52:24.652Z,129.55
2022-10-14T06:54:52.515Z,123.18
2022-10-14T06:57:19.162Z,122.88
2022-10-14T06:59:46.433Z,120.10
2022-10-14T07:02:13.398Z,114.10
2022-10-14T07:04:40.875Z,114.50
2022-10-14T07:07:10.621Z,112.47
2022-10-14T07:09:37.282Z,114.32
2022-10-14T07:12:04.998Z,115.38
2022-10-14T07:14:32.679Z,107.90
2022-10-14T07:17:00.857Z,101.45
2022-10-14T07:19:28.060Z,109.22
2022-10-14T07:21:54.682Z,104.28
2022-10-14T07:24:21.488Z,108.07
2022-10-14T07:26:48.115Z,99.05
2022-10-14T07:29:14.745Z,91.63
2022-10-14T07:31:42.092Z,96.28
2022-10-14T07:34:10.282Z,90.63
2022-10-14T07:36:38.264Z,89.28
2022-10-14T07:39:06.194Z,85.32
2022-10-14T07:41:34.069Z,85.10
2022-10-14T07:44:06.770Z,81.22
2022-10-14T07:46:37.295Z,77.85
2022-10-14T07:49:07.386Z,73.25
2022-10-14T07:51:34.712Z,73.30
2022-10-14T07:54:03.802Z,69.82
2022-10-14T07:56:31.547Z,69.13
2022-10-14T07:58:58.894Z,72.30
2022-10-14T08:01:26.514Z,67.60
2022-10-14T08:03:54.376Z,68.45
2022-10-14T08:06:21.388Z,66.68
2022-10-14T08:08:48.131Z,69.63
2022-10-14T08:11:18.464Z,63.72
2022-10-14T08:13:46.796Z,64.30
2022-10-14T08:16:16.881Z,59.35
2022-10-14T08:18:45.424Z,55.22
2022-10-14T08:21:12.736Z,51.10
2022-10-14T08:23:40.764Z,51.55
2022-10-14T08:26:31.604Z,49.03
2022-10-14T08:29:05.110Z,47.13
2022-10-14T08:31:33.427Z,44.13
2022-10-14T08:34:00.435Z,43.40
2022-10-14T08:36:27.418Z,45.33
2022-10-14T08:38:55.322Z,37.00
2022-10-14T08:41:38.569Z,38.63
2022-10-14T08:44:24.118Z,31.10
2022-10-14T08:46:56.995Z,34.47
2022-10-14T08:49:54.510Z,31.42
2022-10-14T08:52:41.915Z,30.38
2022-10-14T08:55:39.392Z,29.67
2022-10-14T08:58:31.812Z,29.40
2022-10-14T09:01:20.200Z,31.45
2022-10-14T09:03:47.019Z,31.70
2022-10-14T09:06:39.226Z,32.67
2022-10-14T09:09:30.943Z,26.38
2022-10-14T09:12:06.177Z,27.10
2022-10-14T09:14:38.781Z,32.58
2022-10-14T09:17:14.928Z,28.45
2022-10-14T09:19:58.681Z,28.92
2022-10-14T09:22:27.828Z,27.33
2022-10-14T09:24:54.613Z,25.50
2022-10-14T09:27:22.904Z,23.27
2022-10-14T09:30:10.428Z,24.33
2022-10-14T09:32:46.460Z,22.65
2022-10-14T09:35:24.388Z,24.02
2022-10-14T09:37:53.095Z,24.65
2022-10-14T09:40:31.261Z,22.15
2022-10-14T09:43:11.202Z,26.88
2022-10-14T09:45:56.552Z,22.63
2022-10-14T09:48:48.600Z,22.48
2022-10-14T09:51:30.204Z,21.90
2022-10-14T09:54:00.669Z,19.95
2022-10-14T09:56:32.006Z,21.38
2022-10-14T09:58:59.286Z,19.30
2022-10-14T10:01:36.780Z,20.52
2022-10-14T10:04:31.521Z,20.70
2022-10-14T10:07:00.497Z,20.00
2022-10-14T10:09:27.194Z,21.15
2022-10-14T10:11:55.330Z,18.80
2022-10-14T10:14:33.196Z,20.73
2022-10-14T10:17:09.574Z,17.75
2022-10-14T10:19:39.025Z,18.70
2022-10-14T10:22:29.459Z,18.65
2022-10-14T10:25:01.725Z,15.68
2022-10-14T10:27:36.268Z,15.27
2022-10-14T10:30:18.477Z,14.73
2022-10-14T10:33:03.214Z,14.50
2022-10-14T10:35:48.713Z,14.63
2022-10-14T10:39:10.419Z,13.27
2022-10-14T10:41:48.775Z,15.32
2022-10-14T10:44:27.926Z,14.32
2022-10-14T10:47:08.190Z,14.73
2022-10-14T10:50:04.950Z,15.43
2022-10-14T10:52:50.278Z,14.60
2022-10-14T10:55:55.943Z,15.15
2022-10-14T10:58:36.776Z,14.63
2022-10-14T11:01:18.271Z,16.95
2022-10-14T11:04:17.698Z,14.45
2022-10-14T11:07:45.603Z,14.27
2022-10-14T11:10:31.245Z,16.85
2022-10-14T11:13:32.355Z,12.90
2022-10-14T11:16:28.098Z,14.65
2022-10-14T11:19:15.801Z,15.02
2022-10-14T11:21:52.861Z,16.48
2022-10-14T11:24:28.352Z,15.75
2022-10-14T11:26:58.776Z,15.68
2022-10-14T11:29:41.334Z,14.60
2022-10-14T11:32:18.311Z,14.70
2022-10-14T11:35:12.564Z,14.82
2022-10-14T11:37:51.586Z,14.63
2022-10-14T11:40:46.375Z,14.40
2022-10-14T11:43:34.612Z,14.27
2022-10-14T11:46:13.104Z,18.83
2022-10-14T11:48:51.631Z,15.07
2022-10-14T11:51:42.231Z,18.38
2022-10-14T11:54:12.935Z,14.32
2022-10-14T11:57:13.019Z,17.45
2022-10-14T11:59:45.890Z,16.40
2022-10-14T12:02:18.426Z,16.95
2022-10-14T12:05:02.116Z,16.17
2022-10-14T12:07:37.499Z,15.10
2022-10-14T12:10:13.129Z,14.88
2022-10-14T12:12:41.530Z,16.90
2022-10-14T12:15:18.603Z,15.80
2022-10-14T12:17:50.910Z,15.23
2022-10-14T12:20:44.830Z,16.25
2022-10-14T12:23:40.535Z,15.48
2022-10-14T12:26:24.928Z,16.63
2022-10-14T12:28:55.462Z,14.20
2022-10-14T12:31:35.374Z,15.73
2022-10-14T12:34:11.332Z,16.77
2022-10-14T12:36:39.081Z,14.55
2022-10-14T12:39:17.977Z,13.07
2022-10-14T12:41:47.875Z,14.05
2022-10-14T12:44:18.754Z,13.27
2022-10-14T12:46:46.946Z,13.93
2022-10-14T12:49:29.987Z,12.65
2022-10-14T12:52:01.504Z,11.88
2022-10-14T12:54:28.989Z,12.77
2022-10-14T12:57:04.773Z,13.50
2022-10-14T12:59:36.405Z,13.10
2022-10-14T13:02:35.047Z,14.82
2022-10-14T13:05:07.444Z,14.25
2022-10-14T13:07:45.326Z,17.63
2022-10-14T13:10:46.861Z,28.05
2022-10-14T13:13:40.069Z,18.35
2022-10-14T13:16:10.172Z,17.55
2022-10-14T13:18:42.703Z,18.15
2022-10-14T13:21:20.227Z,19.33
2022-10-14T13:23:50.943Z,19.77
2022-10-14T13:26:29.732Z,21.75
2022-10-14T13:29:02.648Z,19.00
2022-10-14T13:32:08.447Z,18.02
2022-10-14T13:34:43.978Z,18.00
2022-10-14T13:37:30.384Z,19.75
2022-10-14T13:39:57.414Z,18.42
2022-10-14T13:42:28.908Z,16.80
2022-10-14T13:45:04.952Z,17.05
2022-10-14T13:47:31.915Z,18.17
2022-10-14T13:49:58.565Z,19.02
2022-10-14T13:52:26.470Z,19.35
2022-10-14T13:55:17.505Z,20.08
2022-10-14T13:58:11.015Z,20.30
2022-10-14T14:00:42.104Z,21.30
2022-10-14T14:03:37.012Z,26.45
2022-10-14T14:06:14.149Z,19.23
2022-10-14T14:08:51.012Z,19.70
2022-10-14T14:11:30.704Z,17.52
2022-10-14T14:14:21.362Z,17.58
2022-10-14T14:16:59.521Z,15.93
2022-10-14T14:19:27.787Z,17.55
2022-10-14T14:22:07.872Z,17.02
2022-10-14T14:24:34.805Z,17.10
2022-10-14T14:27:02.254Z,17.42
2022-10-14T14:29:32.650Z,15.02
2022-10-14T14:32:08.870Z,14.18
2022-10-14T14:34:37.862Z,13.55
2022-10-14T14:37:33.948Z,12.48
2022-10-14T14:40:18.277Z,12.25
2022-10-14T14:42:47.851Z,10.95
2022-10-14T14:45:22.340Z,13.23
2022-10-14T14:47:54.621Z,12.25
2022-10-14T14:50:32.086Z,12.30
2022-10-14T14:53:10.178Z,12.45
2022-10-14T14:55:57.363Z,13.00
2022-10-14T14:58:38.735Z,12.02
2022-10-14T15:01:22.104Z,12.85
2022-10-14T15:04:13.373Z,11.02
2022-10-14T15:06:38.443Z,10.73
2022-10-14T15:09:14.366Z,12.30
2022-10-14T15:11:56.052Z,11.07
2022-10-14T15:14:43.535Z,10.32
2022-10-14T15:17:30.608Z,12.07
2022-10-14T15:19:59.637Z,10.60
2022-10-14T15:22:39.855Z,10.70
2022-10-14T15:25:09.393Z,9.90
2022-10-14T15:27:35.958Z,9.90
2022-10-14T15:30:18.905Z,10.05
2022-10-14T15:32:45.677Z,11.35
2022-10-14T15:35:17.768Z,10.63
2022-10-14T15:37:44.394Z,10.93
2022-10-14T15:40:19.976Z,11.30
2022-10-14T15:42:48.191Z,10.05
2022-10-14T15:45:15.094Z,12.90
2022-10-14T15:47:42.169Z,12.07
2022-10-14T15:50:13.278Z,10.68
2022-10-14T15:52:39.842Z,10.75
2022-10-14T15:55:19.692Z,10.65
2022-10-14T15:57:49.897Z,11.48
2022-10-14T16:00:18.940Z,8.43
2022-10-14T16:02:47.718Z,10.57
2022-10-14T16:05:19.929Z,9.55
2022-10-14T16:07:48.299Z,10.52
2022-10-14T16:10:18.021Z,10.85
2022-10-14T16:12:45.094Z,8.70
2022-10-14T16:15:32.479Z,11.27
2022-10-14T16:17:59.102Z,9.77
2022-10-14T16:20:26.998Z,10.68
2022-10-14T16:22:53.857Z,13.07
2022-10-14T16:25:43.467Z,10.68
2022-10-14T16:28:11.728Z,12.07
2022-10-14T16:30:41.597Z,12.45
2022-10-14T16:33:47.236Z,11.43
2022-10-14T16:36:14.730Z,10.93
2022-10-14T16:38:41.491Z,11.20
2022-10-14T16:41:09.833Z,12.65
2022-10-14T16:43:37.192Z,12.60
2022-10-14T16:46:05.100Z,12.65
2022-10-14T16:48:35.890Z,12.25
2022-10-14T16:51:02.848Z,12.45
2022-10-14T16:53:44.764Z,13.05
2022-10-14T16:56:35.889Z,15.80
2022-10-14T16:59:02.683Z,13.23
2022-10-14T17:01:30.282Z,13.82
2022-10-14T17:03:57.758Z,13.05
2022-10-14T17:06:25.756Z,13.05
2022-10-14T17:08:52.799Z,15.57
2022-10-14T17:11:19.757Z,14.43
2022-10-14T17:13:46.757Z,14.40
2022-10-14T17:16:13.407Z,14.40
2022-10-14T17:18:40.153Z,15.57
2022-10-14T17:21:10.611Z,16.63
2022-10-14T17:23:41.085Z,14.50
2022-10-14T17:26:11.330Z,15.10
2022-10-14T17:28:39.223Z,13.63
2022-10-14T17:31:20.057Z,14.85
2022-10-14T17:33:47.492Z,13.90
2022-10-14T17:36:20.796Z,14.65
2022-10-14T17:38:50.648Z,15.40
2022-10-14T17:41:18.207Z,15.48
2022-10-14T17:43:49.296Z,15.15
2022-10-14T17:46:18.986Z,14.15
2022-10-14T17:48:52.760Z,15.52
2022-10-14T17:51:23.571Z,15.68
2022-10-14T17:53:57.172Z,16.55
2022-10-14T17:56:24.491Z,14.73
2022-10-14T17:58:55.572Z,14.32
2022-10-14T18:01:36.794Z,14.25
2022-10-14T18:04:09.570Z,14.60
2022-10-14T18:06:37.242Z,14.95
2022-10-14T18:09:06.719Z,12.98
2022-10-14T18:12:03.457Z,11.80
2022-10-14T18:14:26.013Z,12.82
2022-10-14T18:16:53.148Z,11.27
2022-10-14T18:19:19.821Z,11.15
2022-10-14T18:21:46.554Z,10.57
2022-10-14T18:24:13.465Z,12.45
2022-10-14T18:26:40.904Z,10.40
2022-10-14T18:29:08.462Z,10.10
2022-10-14T18:31:35.778Z,10.80
2022-10-14T18:34:02.550Z,9.00
2022-10-14T18:36:32.913Z,9.20
2022-10-14T18:39:02.030Z,10.85
2022-10-14T18:41:32.848Z,10.68
2022-10-14T18:43:59.930Z,9.48
2022-10-14T18:46:32.551Z,10.88
2022-10-14T18:49:00.725Z,16.77
2022-10-14T18:51:30.668Z,19.65
2022-10-14T18:54:03.251Z,20.13
2022-10-14T18:56:33.317Z,27.35
2022-10-14T19:01:37.089Z,20.13
2022-10-14T19:04:05.714Z,25.27
2022-10-14T19:06:32.844Z,17.42
2022-10-14T19:09:02.429Z,11.77
2022-10-14T19:11:32.376Z,11.40
2022-10-14T19:14:00.928Z,13.15
2022-10-14T19:16:29.596Z,11.30
2022-10-14T19:18:58.515Z,10.07
2022-10-14T19:21:32.202Z,10.65
2022-10-14T19:24:02.971Z,10.05
2022-10-14T19:26:35.057Z,10.02
2022-10-14T19:29:05.272Z,10.75
2022-10-14T19:31:35.763Z,9.25
2022-10-14T19:34:05.094Z,10.45
2022-10-14T19:36:34.469Z,8.65
2022-10-14T19:39:01.346Z,10.55
2022-10-14T19:41:34.121Z,11.30
2022-10-14T19:44:01.083Z,10.48
2022-10-14T19:46:29.444Z,10.55
2022-10-14T19:48:59.066Z,10.30
2022-10-14T19:51:27.288Z,9.32
2022-10-14T19:53:55.169Z,14.80
2022-10-14T19:56:22.851Z,11.95
2022-10-14T19:58:51.907Z,10.20
2022-10-14T20:01:20.197Z,11.27
2022-10-14T20:03:47.439Z,11.98
2022-10-14T20:06:14.448Z,11.45
2022-10-14T20:08:42.815Z,11.13
2022-10-14T20:11:12.487Z,12.40
2022-10-14T20:13:39.276Z,14.88
2022-10-14T20:16:08.668Z,12.02
2022-10-14T20:18:36.007Z,12.32
2022-10-14T20:21:04.817Z,13.23
2022-10-14T20:23:33.958Z,17.02
2022-10-14T20:26:08.735Z,13.20
2022-10-14T20:28:36.522Z,13.10
2022-10-14T20:31:06.700Z,16.10
2022-10-14T20:33:33.381Z,18.30
2022-10-14T20:36:01.696Z,16.02
2022-10-14T20:38:29.143Z,15.95
2022-10-14T20:40:55.831Z,17.58
2022-10-14T20:43:22.569Z,17.27
2022-10-14T20:45:49.230Z,23.85
2022-10-14T20:48:16.466Z,17.50
2022-10-14T20:50:50.994Z,17.15
2022-10-14T20:53:17.569Z,15.18
2022-10-14T20:55:44.140Z,16.35
2022-10-14T20:58:11.097Z,15.93
2022-10-14T21:00:39.116Z,16.20
2022-10-14T21:03:06.218Z,18.85
2022-10-14T21:05:37.723Z,16.80
2022-10-14T21:08:04.995Z,16.35
2022-10-14T21:10:31.728Z,17.38
2022-10-14T21:12:58.640Z,18.58
2022-10-14T21:15:26.934Z,15.80
2022-10-14T21:17:53.585Z,19.02
2022-10-14T21:20:20.396Z,18.13
2022-10-14T21:25:37.764Z,17.25
2022-10-14T21:28:04.937Z,18.10
2022-10-14T21:30:43.330Z,18.85
2022-10-14T21:33:10.587Z,18.60
2022-10-14T21:35:37.343Z,19.50
2022-10-14T21:38:04.281Z,21.55
2022-10-14T21:40:31.047Z,18.60
2022-10-14T21:42:57.621Z,17.75
2022-10-14T21:45:24.558Z,19.75
2022-10-14T21:50:35.004Z,20.42
2022-10-14T21:53:02.050Z,22.63
2022-10-14T21:55:28.600Z,24.38
2022-10-14T21:57:55.199Z,21.90
2022-10-14T22:00:22.049Z,26.45
2022-10-14T22:02:53.013Z,26.52
2022-10-14T22:05:20.397Z,27.48
2022-10-14T22:07:48.819Z,34.35
2022-10-14T22:10:34.362Z,30.48
2022-10-14T22:13:01.809Z,30.60
2022-10-14T22:15:28.650Z,36.20
2022-10-14T22:17:55.267Z,30.17
2022-10-14T22:20:22.118Z,33.05
2022-10-14T22:22:48.754Z,35.28
2022-10-14T22:25:16.049Z,32.20
2022-10-14T22:27:43.035Z,32.33
2022-10-14T22:30:10.229Z,35.15
2022-10-14T22:32:36.945Z,35.97
2022-10-14T22:35:04.019Z,38.15
2022-10-14T22:37:32.378Z,34.15
2022-10-14T22:39:59.256Z,38.75
2022-10-14T22:42:26.005Z,38.70
2022-10-14T22:44:52.952Z,43.55
2022-10-14T22:47:19.684Z,41.67
2022-10-14T22:49:46.439Z,42.47
2022-10-14T22:52:13.589Z,40.65
2022-10-14T22:54:40.439Z,40.65
2022-10-14T22:57:07.330Z,49.08
2022-10-14T22:59:34.059Z,49.08
2022-10-14T23:02:02.167Z,46.95
2022-10-14T23:04:33.006Z,49.85
2022-10-14T23:07:04.348Z,47.78
2022-10-14T23:12:01.248Z,50.13
2022-10-14T23:14:30.735Z,50.90
2022-10-14T23:16:57.678Z,53.60
2022-10-14T23:19:24.548Z,57.28
2022-10-14T23:21:51.995Z,54.28
2022-10-14T23:24:20.438Z,51.92
2022-10-14T23:26:47.326Z,51.25
2022-10-14T23:29:14.022Z,54.88
2022-10-14T23:31:41.655Z,56.17
2022-10-14T23:34:12.572Z,52.70
2022-10-14T23:36:39.647Z,56.65
2022-10-14T23:39:06.663Z,54.90
2022-10-14T23:41:33.578Z,58.40
2022-10-14T23:44:00.771Z,57.83
2022-10-14T23:46:27.494Z,56.20
2022-10-14T23:49:06.852Z,61.58
2022-10-14T23:51:41.782Z,58.88
2022-10-14T23:54:10.469Z,59.88
2022-10-14T23:56:37.233Z,62.13
2022-10-14T23:59:03.834Z,64.82
